createdAt,value
2018-09-25T00:00:49.355Z,1022.09
2018-09-25T00:01:49.344Z,1022.13
2018-09-25T00:02:49.332Z,1022.14
2018-09-25T00:03:49.321Z,1022.19
2018-09-25T00:04:49.312Z,1022.10
2018-09-25T00:05:49.298Z,1022.09
2018-09-25T00:06:49.291Z,1022.05
2018-09-25T00:07:49.282Z,1022.05
2018-09-25T00:08:49.273Z,1022.00
2018-09-25T00:09:49.258Z,1022.03
2018-09-25T00:10:49.245Z,1022.01
2018-09-25T00:11:49.236Z,1022.02
2018-09-25T00:12:49.236Z,1022.04
2018-09-25T00:13:49.212Z,1022.07
2018-09-25T00:14:49.201Z,1022.07
2018-09-25T00:15:49.190Z,1022.12
2018-09-25T00:16:49.182Z,1022.13
2018-09-25T00:17:49.170Z,1022.09
2018-09-25T00:18:49.159Z,1022.12
2018-09-25T00:19:49.152Z,1022.12
2018-09-25T00:20:49.141Z,1022.14
2018-09-25T00:21:49.130Z,1022.13
2018-09-25T00:22:49.117Z,1022.13
2018-09-25T00:23:49.107Z,1022.11
2018-09-25T00:24:49.095Z,1022.15
2018-09-25T00:25:49.084Z,1022.12
2018-09-25T00:26:49.073Z,1022.14
2018-09-25T00:27:49.061Z,1022.15
2018-09-25T00:28:49.052Z,1022.13
2018-09-25T00:29:49.040Z,1022.12
2018-09-25T00:30:49.027Z,1022.10
2018-09-25T00:31:49.016Z,1022.15
2018-09-25T00:32:49.007Z,1022.20
2018-09-25T00:33:48.994Z,1022.23
2018-09-25T00:34:48.997Z,1022.18
2018-09-25T00:35:48.973Z,1022.20
2018-09-25T00:36:48.961Z,1022.16
2018-09-25T00:37:48.951Z,1022.17
2018-09-25T00:38:48.941Z,1022.18
2018-09-25T00:39:48.930Z,1022.16
2018-09-25T00:40:48.920Z,1022.21
2018-09-25T00:41:48.907Z,1022.18
2018-09-25T00:42:48.898Z,1022.18
2018-09-25T00:43:48.886Z,1022.19
2018-09-25T00:44:48.876Z,1022.23
2018-09-25T00:45:48.864Z,1022.21
2018-09-25T00:46:48.854Z,1022.17
2018-09-25T00:47:48.850Z,1022.16
2018-09-25T00:48:48.834Z,1022.17
2018-09-25T00:49:48.821Z,1022.15
2018-09-25T00:50:48.810Z,1022.12
2018-09-25T00:51:48.798Z,1022.13
2018-09-25T00:52:48.791Z,1022.13
2018-09-25T00:53:48.780Z,1022.13
2018-09-25T00:54:48.773Z,1022.12
2018-09-25T00:55:48.756Z,1022.14
2018-09-25T00:56:48.744Z,1022.14
2018-09-25T00:57:48.736Z,1022.21
2018-09-25T00:58:48.731Z,1022.24
2018-09-25T00:59:48.713Z,1022.23
2018-09-25T01:00:48.708Z,1022.26
2018-09-25T01:01:48.694Z,1022.27
2018-09-25T01:02:48.681Z,1022.22
2018-09-25T01:03:48.669Z,1022.28
2018-09-25T01:04:48.664Z,1022.27
2018-09-25T01:05:48.649Z,1022.23
2018-09-25T01:06:48.634Z,1022.20
2018-09-25T01:07:48.623Z,1022.24
2018-09-25T01:08:48.614Z,1022.21
2018-09-25T01:09:48.605Z,1022.27
2018-09-25T01:10:48.595Z,1022.26
2018-09-25T01:11:48.582Z,1022.23
2018-09-25T01:12:48.570Z,1022.22
2018-09-25T01:13:48.561Z,1022.21
2018-09-25T01:14:48.548Z,1022.23
2018-09-25T01:15:48.540Z,1022.20
2018-09-25T01:16:48.526Z,1022.14
2018-09-25T01:17:48.517Z,1022.20
2018-09-25T01:18:48.505Z,1022.15
2018-09-25T01:19:48.500Z,1022.13
2018-09-25T01:20:48.485Z,1022.16
2018-09-25T01:21:48.474Z,1022.18
2018-09-25T01:22:48.464Z,1022.14
2018-09-25T01:23:48.452Z,1022.20
2018-09-25T01:24:48.443Z,1022.24
2018-09-25T01:25:48.429Z,1022.19
2018-09-25T01:26:48.417Z,1022.22
2018-09-25T01:27:48.411Z,1022.21
2018-09-25T01:28:48.396Z,1022.20
2018-09-25T01:29:48.384Z,1022.16
2018-09-25T01:30:48.376Z,1022.16
2018-09-25T01:31:48.366Z,1022.20
2018-09-25T01:32:48.353Z,1022.19
2018-09-25T01:33:48.344Z,1022.19
2018-09-25T01:34:48.333Z,1022.22
2018-09-25T01:35:48.324Z,1022.19
2018-09-25T01:36:48.311Z,1022.16
2018-09-25T01:37:48.298Z,1022.16
2018-09-25T01:38:48.287Z,1022.18
2018-09-25T01:39:48.277Z,1022.23
2018-09-25T01:40:48.264Z,1022.17
2018-09-25T01:41:48.258Z,1022.21
2018-09-25T01:42:48.244Z,1022.23
2018-09-25T01:43:48.234Z,1022.24
2018-09-25T01:44:48.224Z,1022.26
2018-09-25T01:45:48.216Z,1022.26
2018-09-25T01:46:48.202Z,1022.25
2018-09-25T01:47:48.192Z,1022.26
2018-09-25T01:48:48.182Z,1022.29
2018-09-25T01:49:48.167Z,1022.26
2018-09-25T01:50:48.161Z,1022.32
2018-09-25T01:51:48.146Z,1022.32
2018-09-25T01:52:48.138Z,1022.30
2018-09-25T01:53:48.127Z,1022.32
2018-09-25T01:54:48.113Z,1022.34
2018-09-25T01:55:48.104Z,1022.31
2018-09-25T01:56:48.092Z,1022.32
2018-09-25T01:57:48.081Z,1022.34
2018-09-25T01:58:48.069Z,1022.30
2018-09-25T01:59:48.061Z,1022.29
2018-09-25T02:00:48.053Z,1022.31
2018-09-25T02:01:48.039Z,1022.32
2018-09-25T02:02:48.024Z,1022.32
2018-09-25T02:03:48.019Z,1022.33
2018-09-25T02:04:48.005Z,1022.33
2018-09-25T02:05:48.051Z,1022.31
2018-09-25T02:06:47.984Z,1022.30
2018-09-25T02:07:47.976Z,1022.27
2018-09-25T02:08:47.962Z,1022.27
2018-09-25T02:09:47.950Z,1022.30
2018-09-25T02:10:47.942Z,1022.27
2018-09-25T02:11:47.930Z,1022.31
2018-09-25T02:12:47.917Z,1022.33
2018-09-25T02:13:47.911Z,1022.33
2018-09-25T02:14:47.899Z,1022.30
2018-09-25T02:15:47.891Z,1022.32
2018-09-25T02:16:47.872Z,1022.36
2018-09-25T02:17:47.861Z,1022.31
2018-09-25T02:18:47.851Z,1022.25
2018-09-25T02:19:47.842Z,1022.27
2018-09-25T02:20:47.831Z,1022.25
2018-09-25T02:21:47.819Z,1022.23
2018-09-25T02:22:47.811Z,1022.21
2018-09-25T02:23:47.800Z,1022.22
2018-09-25T02:24:47.786Z,1022.20
2018-09-25T02:25:47.778Z,1022.23
2018-09-25T02:26:47.764Z,1022.25
2018-09-25T02:27:47.756Z,1022.22
2018-09-25T02:28:47.744Z,1022.20
2018-09-25T02:29:47.736Z,1022.19
2018-09-25T02:30:47.728Z,1022.16
2018-09-25T02:31:47.712Z,1022.17
2018-09-25T02:32:47.700Z,1022.20
2018-09-25T02:33:47.689Z,1022.19
2018-09-25T02:34:47.677Z,1022.20
2018-09-25T02:35:47.667Z,1022.14
2018-09-25T02:36:47.656Z,1022.16
2018-09-25T02:37:47.644Z,1022.21
2018-09-25T02:38:47.636Z,1022.19
2018-09-25T02:39:47.623Z,1022.17
2018-09-25T02:40:47.614Z,1022.19
2018-09-25T02:41:47.605Z,1022.20
2018-09-25T02:42:47.594Z,1022.21
2018-09-25T02:43:47.581Z,1022.14
2018-09-25T02:44:47.570Z,1022.21
2018-09-25T02:45:47.557Z,1022.21
2018-09-25T02:46:47.548Z,1022.18
2018-09-25T02:47:47.538Z,1022.23
2018-09-25T02:48:47.528Z,1022.24
2018-09-25T02:49:47.515Z,1022.28
2018-09-25T02:50:47.503Z,1022.27
2018-09-25T02:51:47.492Z,1022.23
2018-09-25T02:52:47.483Z,1022.26
2018-09-25T02:53:47.473Z,1022.22
2018-09-25T02:54:47.461Z,1022.28
2018-09-25T02:55:47.452Z,1022.31
2018-09-25T02:56:47.438Z,1022.33
2018-09-25T02:57:47.430Z,1022.31
2018-09-25T02:58:47.416Z,1022.33
2018-09-25T02:59:47.405Z,1022.38
2018-09-25T03:00:47.397Z,1022.42
2018-09-25T03:01:47.386Z,1022.46
2018-09-25T03:02:47.374Z,1022.47
2018-09-25T03:03:47.366Z,1022.50
2018-09-25T03:04:47.355Z,1022.51
2018-09-25T03:05:47.345Z,1022.50
2018-09-25T03:06:47.333Z,1022.49
2018-09-25T03:07:47.322Z,1022.49
2018-09-25T03:08:47.324Z,1022.52
2018-09-25T03:09:47.300Z,1022.58
2018-09-25T03:10:47.286Z,1022.58
2018-09-25T03:11:47.274Z,1022.53
2018-09-25T03:12:47.265Z,1022.52
2018-09-25T03:13:47.253Z,1022.56
2018-09-25T03:14:47.245Z,1022.52
2018-09-25T03:15:47.233Z,1022.49
2018-09-25T03:16:47.221Z,1022.51
2018-09-25T03:17:47.211Z,1022.49
2018-09-25T03:18:47.199Z,1022.51
2018-09-25T03:19:47.188Z,1022.53
2018-09-25T03:20:47.175Z,1022.45
2018-09-25T03:21:47.166Z,1022.43
2018-09-25T03:22:47.157Z,1022.49
2018-09-25T03:23:47.307Z,1022.52
2018-09-25T03:24:47.136Z,1022.51
2018-09-25T03:25:47.124Z,1022.54
2018-09-25T03:26:47.118Z,1022.50
2018-09-25T03:27:47.102Z,1022.49
2018-09-25T03:28:47.090Z,1022.48
2018-09-25T03:29:47.083Z,1022.48
2018-09-25T03:30:47.070Z,1022.48
2018-09-25T03:31:47.071Z,1022.47
2018-09-25T03:32:47.049Z,1022.48
2018-09-25T03:33:47.036Z,1022.45
2018-09-25T03:34:47.027Z,1022.43
2018-09-25T03:35:47.016Z,1022.43
2018-09-25T03:36:47.007Z,1022.46
2018-09-25T03:37:46.991Z,1022.44
2018-09-25T03:38:46.982Z,1022.43
2018-09-25T03:39:46.973Z,1022.43
2018-09-25T03:40:46.964Z,1022.41
2018-09-25T03:41:47.006Z,1022.42
2018-09-25T03:42:46.939Z,1022.41
2018-09-25T03:43:46.927Z,1022.39
2018-09-25T03:44:46.919Z,1022.45
2018-09-25T03:45:46.906Z,1022.48
2018-09-25T03:46:46.902Z,1022.46
2018-09-25T03:47:46.886Z,1022.47
2018-09-25T03:48:46.873Z,1022.47
2018-09-25T03:49:46.863Z,1022.49
2018-09-25T03:50:46.851Z,1022.48
2018-09-25T03:51:46.848Z,1022.45
2018-09-25T03:52:46.831Z,1022.45
2018-09-25T03:53:46.818Z,1022.43
2018-09-25T03:54:46.810Z,1022.43
2018-09-25T03:55:46.797Z,1022.42
2018-09-25T03:56:46.788Z,1022.43
2018-09-25T03:57:46.783Z,1022.40
2018-09-25T03:58:46.763Z,1022.40
2018-09-25T03:59:46.754Z,1022.41
2018-09-25T04:00:46.745Z,1022.37
2018-09-25T04:01:46.729Z,1022.36
2018-09-25T04:02:46.718Z,1022.40
2018-09-25T04:03:46.710Z,1022.42
2018-09-25T04:04:46.698Z,1022.40
2018-09-25T04:05:46.688Z,1022.40
2018-09-25T04:06:46.677Z,1022.45
2018-09-25T04:07:46.664Z,1022.48
2018-09-25T04:08:46.653Z,1022.48
2018-09-25T04:09:46.643Z,1022.49
2018-09-25T04:10:46.633Z,1022.48
2018-09-25T04:11:46.627Z,1022.47
2018-09-25T04:12:46.615Z,1022.49
2018-09-25T04:13:46.602Z,1022.49
2018-09-25T04:14:46.591Z,1022.54
2018-09-25T04:15:46.579Z,1022.58
2018-09-25T04:16:46.570Z,1022.59
2018-09-25T04:17:46.563Z,1022.58
2018-09-25T04:18:46.548Z,1022.54
2018-09-25T04:19:46.534Z,1022.57
2018-09-25T04:20:46.525Z,1022.58
2018-09-25T04:21:46.513Z,1022.56
2018-09-25T04:22:46.509Z,1022.57
2018-09-25T04:23:46.493Z,1022.54
2018-09-25T04:24:46.481Z,1022.57
2018-09-25T04:25:46.471Z,1022.60
2018-09-25T04:26:46.461Z,1022.63
2018-09-25T04:27:46.450Z,1022.64
2018-09-25T04:28:46.446Z,1022.61
2018-09-25T04:29:46.428Z,1022.60
2018-09-25T04:30:46.420Z,1022.67
2018-09-25T04:31:46.405Z,1022.66
2018-09-25T04:32:46.393Z,1022.64
2018-09-25T04:33:46.389Z,1022.64
2018-09-25T04:34:46.372Z,1022.64
2018-09-25T04:35:46.361Z,1022.66
2018-09-25T04:36:46.353Z,1022.71
2018-09-25T04:37:46.340Z,1022.73
2018-09-25T04:38:46.329Z,1022.71
2018-09-25T04:39:46.320Z,1022.74
2018-09-25T04:40:46.308Z,1022.73
2018-09-25T04:41:46.299Z,1022.73
2018-09-25T04:42:46.284Z,1022.71
2018-09-25T04:43:46.277Z,1022.71
2018-09-25T04:44:46.266Z,1022.74
2018-09-25T04:45:46.255Z,1022.69
2018-09-25T04:46:46.245Z,1022.71
2018-09-25T04:47:46.281Z,1022.73
2018-09-25T04:48:46.220Z,1022.73
2018-09-25T04:49:46.209Z,1022.73
2018-09-25T04:50:46.198Z,1022.71
2018-09-25T04:51:46.193Z,1022.76
2018-09-25T04:52:46.178Z,1022.73
2018-09-25T04:53:46.165Z,1022.71
2018-09-25T04:54:46.155Z,1022.75
2018-09-25T04:55:46.149Z,1022.74
2018-09-25T04:56:46.135Z,1022.71
2018-09-25T04:57:46.124Z,1022.70
2018-09-25T04:58:46.116Z,1022.75
2018-09-25T04:59:46.101Z,1022.76
2018-09-25T05:00:46.090Z,1022.75
2018-09-25T05:01:46.078Z,1022.76
2018-09-25T05:02:46.068Z,1022.81
2018-09-25T05:03:46.058Z,1022.83
2018-09-25T05:04:46.046Z,1022.85
2018-09-25T05:05:46.034Z,1022.83
2018-09-25T05:06:46.154Z,1022.84
2018-09-25T05:07:46.021Z,1022.80
2018-09-25T05:08:46.003Z,1022.83
2018-09-25T05:09:45.998Z,1022.85
2018-09-25T05:10:45.981Z,1022.88
2018-09-25T05:11:45.972Z,1022.86
2018-09-25T05:12:45.960Z,1022.83
2018-09-25T05:13:45.950Z,1022.84
2018-09-25T05:14:45.975Z,1022.88
2018-09-25T05:15:45.930Z,1022.85
2018-09-25T05:16:45.918Z,1022.89
2018-09-25T05:17:45.905Z,1022.89
2018-09-25T05:18:45.895Z,1022.94
2018-09-25T05:19:45.884Z,1022.92
2018-09-25T05:20:45.874Z,1022.98
2018-09-25T05:21:45.862Z,1022.95
2018-09-25T05:22:45.854Z,1022.95
2018-09-25T05:23:45.840Z,1022.92
2018-09-25T05:24:45.833Z,1022.95
2018-09-25T05:25:45.822Z,1022.95
2018-09-25T05:26:45.809Z,1023.02
2018-09-25T05:27:45.795Z,1022.97
2018-09-25T05:28:45.787Z,1022.98
2018-09-25T05:29:45.774Z,1023.02
2018-09-25T05:30:45.763Z,1023.04
2018-09-25T05:31:45.755Z,1023.07
2018-09-25T05:32:45.745Z,1023.08
2018-09-25T05:33:45.732Z,1023.12
2018-09-25T05:34:45.720Z,1023.12
2018-09-25T05:35:45.708Z,1023.10
2018-09-25T05:36:45.702Z,1023.19
2018-09-25T05:37:45.687Z,1023.18
2018-09-25T05:38:45.674Z,1023.20
2018-09-25T05:39:45.669Z,1023.22
2018-09-25T05:40:45.677Z,1023.17
2018-09-25T05:41:45.643Z,1023.13
2018-09-25T05:42:45.633Z,1023.18
2018-09-25T05:43:45.621Z,1023.17
2018-09-25T05:44:45.613Z,1023.20
2018-09-25T05:45:45.603Z,1023.22
2018-09-25T05:46:45.588Z,1023.23
2018-09-25T05:47:45.577Z,1023.24
2018-09-25T05:48:45.597Z,1023.27
2018-09-25T05:49:45.553Z,1023.29
2018-09-25T05:50:45.620Z,1023.28
2018-09-25T05:51:45.538Z,1023.26
2018-09-25T05:52:45.522Z,1023.31
2018-09-25T05:53:45.513Z,1023.30
2018-09-25T05:54:45.500Z,1023.32
2018-09-25T05:55:45.491Z,1023.39
2018-09-25T05:56:45.479Z,1023.36
2018-09-25T05:57:45.468Z,1023.40
2018-09-25T05:58:45.463Z,1023.39
2018-09-25T05:59:45.448Z,1023.34
2018-09-25T06:00:45.435Z,1023.34
2018-09-25T06:01:45.426Z,1023.33
2018-09-25T06:02:45.413Z,1023.34
2018-09-25T06:03:45.401Z,1023.30
2018-09-25T06:04:45.393Z,1023.29
2018-09-25T06:05:45.384Z,1023.34
2018-09-25T06:06:45.373Z,1023.37
2018-09-25T06:07:45.360Z,1023.33
2018-09-25T06:08:45.348Z,1023.31
2018-09-25T06:09:45.456Z,1023.38
2018-09-25T06:10:45.330Z,1023.42
2018-09-25T06:11:45.317Z,1023.42
2018-09-25T06:12:45.304Z,1023.38
2018-09-25T06:13:45.299Z,1023.38
2018-09-25T06:14:45.283Z,1023.30
2018-09-25T06:15:45.323Z,1023.27
2018-09-25T06:16:45.260Z,1023.32
2018-09-25T06:17:45.249Z,1023.31
2018-09-25T06:18:45.296Z,1023.33
2018-09-25T06:19:45.228Z,1023.37
2018-09-25T06:20:45.218Z,1023.34
2018-09-25T06:21:45.207Z,1023.39
2018-09-25T06:22:45.197Z,1023.38
2018-09-25T06:23:45.185Z,1023.40
2018-09-25T06:24:45.173Z,1023.46
2018-09-25T06:25:45.165Z,1023.49
2018-09-25T06:26:45.181Z,1023.44
2018-09-25T06:27:45.145Z,1023.41
2018-09-25T06:28:45.185Z,1023.41
2018-09-25T06:29:45.118Z,1023.44
2018-09-25T06:30:45.112Z,1023.48
2018-09-25T06:31:45.100Z,1023.49
2018-09-25T06:32:45.092Z,1023.47
2018-09-25T06:33:45.074Z,1023.48
2018-09-25T06:34:45.081Z,1023.50
2018-09-25T06:35:45.055Z,1023.54
2018-09-25T06:36:45.041Z,1023.48
2018-09-25T06:37:45.032Z,1023.53
2018-09-25T06:38:45.069Z,1023.53
2018-09-25T06:39:45.013Z,1023.54
2018-09-25T06:40:45.021Z,1023.54
2018-09-25T06:41:44.989Z,1023.51
2018-09-25T06:42:44.978Z,1023.54
2018-09-25T06:43:44.968Z,1023.55
2018-09-25T06:44:44.956Z,1023.54
2018-09-25T06:45:44.946Z,1023.57
2018-09-25T06:46:44.933Z,1023.52
2018-09-25T06:47:44.924Z,1023.58
2018-09-25T06:48:44.915Z,1023.57
2018-09-25T06:49:44.901Z,1023.58
2018-09-25T06:50:44.893Z,1023.57
2018-09-25T06:51:44.881Z,1023.57
2018-09-25T06:52:44.868Z,1023.57
2018-09-25T06:53:44.857Z,1023.58
2018-09-25T06:54:44.950Z,1023.55
2018-09-25T06:55:44.837Z,1023.56
2018-09-25T06:56:44.827Z,1023.55
2018-09-25T06:57:44.812Z,1023.53
2018-09-25T06:58:44.801Z,1023.54
2018-09-25T06:59:44.794Z,1023.54
2018-09-25T07:00:44.851Z,1023.55
2018-09-25T07:01:44.771Z,1023.57
2018-09-25T07:02:44.757Z,1023.58
2018-09-25T07:03:44.750Z,1023.58
2018-09-25T07:04:44.737Z,1023.62
2018-09-25T07:05:44.725Z,1023.66
2018-09-25T07:06:44.721Z,1023.64
2018-09-25T07:07:44.704Z,1023.62
2018-09-25T07:08:44.691Z,1023.65
2018-09-25T07:09:44.751Z,1023.71
2018-09-25T07:10:44.798Z,1023.68
2018-09-25T07:11:44.658Z,1023.71
2018-09-25T07:12:44.653Z,1023.69
2018-09-25T07:13:44.638Z,1023.68
2018-09-25T07:14:44.626Z,1023.72
2018-09-25T07:15:44.632Z,1023.69
2018-09-25T07:16:44.605Z,1023.70
2018-09-25T07:17:44.658Z,1023.67
2018-09-25T07:18:44.584Z,1023.69
2018-09-25T07:19:44.572Z,1023.75
2018-09-25T07:20:44.563Z,1023.71
2018-09-25T07:21:44.550Z,1023.71
2018-09-25T07:22:44.582Z,1023.76
2018-09-25T07:23:44.535Z,1023.74
2018-09-25T07:24:44.616Z,1023.77
2018-09-25T07:25:44.509Z,1023.77
2018-09-25T07:26:44.495Z,1023.78
2018-09-25T07:27:44.484Z,1023.80
2018-09-25T07:28:44.475Z,1023.78
2018-09-25T07:29:44.462Z,1023.82
2018-09-25T07:30:44.452Z,1023.90
2018-09-25T07:31:44.442Z,1023.83
2018-09-25T07:32:44.431Z,1023.89
2018-09-25T07:33:44.421Z,1023.90
2018-09-25T07:34:44.410Z,1023.91
2018-09-25T07:35:44.437Z,1023.93
2018-09-25T07:36:44.386Z,1023.90
2018-09-25T07:37:44.380Z,1023.95
2018-09-25T07:38:44.364Z,1023.95
2018-09-25T07:39:44.425Z,1023.99
2018-09-25T07:40:44.343Z,1024.00
2018-09-25T07:41:44.333Z,1023.98
2018-09-25T07:42:44.322Z,1024.02
2018-09-25T07:43:44.313Z,1024.04
2018-09-25T07:44:44.299Z,1024.06
2018-09-25T07:45:44.287Z,1024.08
2018-09-25T07:46:44.276Z,1024.10
2018-09-25T07:47:44.268Z,1024.04
2018-09-25T07:48:44.262Z,1024.08
2018-09-25T07:49:44.244Z,1024.07
2018-09-25T07:50:44.235Z,1024.05
2018-09-25T07:51:44.224Z,1024.04
2018-09-25T07:52:44.211Z,1024.11
2018-09-25T07:53:44.200Z,1024.12
2018-09-25T07:54:44.193Z,1024.11
2018-09-25T07:55:44.304Z,1024.08
2018-09-25T07:56:44.170Z,1024.12
2018-09-25T07:57:44.158Z,1024.12
2018-09-25T07:58:44.148Z,1024.08
2018-09-25T07:59:44.133Z,1024.06
2018-09-25T08:00:44.125Z,1024.06
2018-09-25T08:01:44.112Z,1024.08
2018-09-25T08:02:44.101Z,1024.09
2018-09-25T08:03:44.095Z,1024.09
2018-09-25T08:04:44.083Z,1024.10
2018-09-25T08:05:44.071Z,1024.10
2018-09-25T08:06:44.062Z,1024.07
2018-09-25T08:07:44.049Z,1024.08
2018-09-25T08:08:44.037Z,1024.11
2018-09-25T08:09:44.033Z,1024.09
2018-09-25T08:10:44.015Z,1024.15
2018-09-25T08:11:44.004Z,1024.13
2018-09-25T08:12:43.994Z,1024.17
2018-09-25T08:13:43.983Z,1024.13
2018-09-25T08:14:43.971Z,1024.11
2018-09-25T08:15:43.959Z,1024.11
2018-09-25T08:16:43.951Z,1024.09
2018-09-25T08:17:43.941Z,1024.13
2018-09-25T08:18:43.929Z,1024.16
2018-09-25T08:19:43.918Z,1024.20
2018-09-25T08:20:43.907Z,1024.22
2018-09-25T08:21:43.897Z,1024.25
2018-09-25T08:22:43.887Z,1024.17
2018-09-25T08:23:43.874Z,1024.20
2018-09-25T08:24:43.871Z,1024.19
2018-09-25T08:25:43.852Z,1024.24
2018-09-25T08:26:43.881Z,1024.19
2018-09-25T08:27:43.829Z,1024.21
2018-09-25T08:28:43.819Z,1024.20
2018-09-25T08:29:43.865Z,1024.18
2018-09-25T08:30:43.800Z,1024.20
2018-09-25T08:31:43.787Z,1024.20
2018-09-25T08:32:43.776Z,1024.23
2018-09-25T08:33:43.766Z,1024.24
2018-09-25T08:34:43.752Z,1024.27
2018-09-25T08:35:43.741Z,1024.23
2018-09-25T08:36:43.732Z,1024.28
2018-09-25T08:37:43.722Z,1024.26
2018-09-25T08:38:43.768Z,1024.30
2018-09-25T08:39:43.698Z,1024.30
2018-09-25T08:40:43.688Z,1024.32
2018-09-25T08:41:43.698Z,1024.34
2018-09-25T08:42:43.665Z,1024.31
2018-09-25T08:43:43.659Z,1024.39
2018-09-25T08:44:43.662Z,1024.37
2018-09-25T08:45:43.661Z,1024.39
2018-09-25T08:46:43.621Z,1024.36
2018-09-25T08:47:43.631Z,1024.39
2018-09-25T08:48:43.599Z,1024.38
2018-09-25T08:49:43.601Z,1024.41
2018-09-25T08:50:43.579Z,1024.41
2018-09-25T08:51:43.568Z,1024.41
2018-09-25T08:52:43.558Z,1024.41
2018-09-25T08:53:43.546Z,1024.42
2018-09-25T08:54:43.535Z,1024.45
2018-09-25T08:55:43.530Z,1024.47
2018-09-25T08:56:43.514Z,1024.44
2018-09-25T08:57:43.508Z,1024.47
2018-09-25T08:58:43.490Z,1024.47
2018-09-25T08:59:43.479Z,1024.49
2018-09-25T09:00:43.468Z,1024.45
2018-09-25T09:01:43.457Z,1024.53
2018-09-25T09:02:43.448Z,1024.49
2018-09-25T09:03:43.435Z,1024.51
2018-09-25T09:04:43.426Z,1024.47
2018-09-25T09:05:43.414Z,1024.50
2018-09-25T09:06:43.403Z,1024.43
2018-09-25T09:07:43.396Z,1024.43
2018-09-25T09:08:43.379Z,1024.41
2018-09-25T09:09:43.371Z,1024.48
2018-09-25T09:10:43.363Z,1024.45
2018-09-25T09:11:43.350Z,1024.44
2018-09-25T09:12:43.337Z,1024.46
2018-09-25T09:13:43.328Z,1024.47
2018-09-25T09:14:43.316Z,1024.46
2018-09-25T09:15:43.307Z,1024.45
2018-09-25T09:16:43.294Z,1024.45
2018-09-25T09:17:43.281Z,1024.41
2018-09-25T09:18:43.290Z,1024.41
2018-09-25T09:19:43.285Z,1024.39
2018-09-25T09:20:43.252Z,1024.42
2018-09-25T09:21:43.237Z,1024.41
2018-09-25T09:22:43.226Z,1024.37
2018-09-25T09:23:43.216Z,1024.39
2018-09-25T09:24:43.206Z,1024.43
2018-09-25T09:25:43.197Z,1024.37
2018-09-25T09:26:43.185Z,1024.37
2018-09-25T09:27:43.173Z,1024.37
2018-09-25T09:28:43.166Z,1024.39
2018-09-25T09:29:43.152Z,1024.35
2018-09-25T09:30:43.139Z,1024.33
2018-09-25T09:31:43.131Z,1024.33
2018-09-25T09:32:43.178Z,1024.30
2018-09-25T09:33:43.109Z,1024.29
2018-09-25T09:34:43.096Z,1024.24
2018-09-25T09:35:43.092Z,1024.22
2018-09-25T09:36:43.075Z,1024.22
2018-09-25T09:37:43.063Z,1024.21
2018-09-25T09:38:43.053Z,1024.24
2018-09-25T09:39:43.039Z,1024.24
2018-09-25T09:40:43.033Z,1024.26
2018-09-25T09:41:43.316Z,1024.21
2018-09-25T09:42:43.012Z,1024.28
2018-09-25T09:43:42.996Z,1024.24
2018-09-25T09:44:42.988Z,1024.22
2018-09-25T09:45:42.977Z,1024.24
2018-09-25T09:46:42.963Z,1024.20
2018-09-25T09:47:42.959Z,1024.19
2018-09-25T09:48:42.966Z,1024.21
2018-09-25T09:49:42.932Z,1024.19
2018-09-25T09:50:42.921Z,1024.21
2018-09-25T09:51:42.911Z,1024.22
2018-09-25T09:52:42.899Z,1024.19
2018-09-25T09:53:42.888Z,1024.21
2018-09-25T09:54:42.876Z,1024.19
2018-09-25T09:55:42.867Z,1024.19
2018-09-25T09:56:42.857Z,1024.17
2018-09-25T09:57:42.844Z,1024.12
2018-09-25T09:58:42.833Z,1024.13
2018-09-25T09:59:42.821Z,1024.14
2018-09-25T10:00:42.811Z,1024.13
2018-09-25T10:01:42.799Z,1024.07
2018-09-25T10:02:42.791Z,1024.09
2018-09-25T10:03:42.779Z,1024.11
2018-09-25T10:04:42.768Z,1024.06
2018-09-25T10:05:42.757Z,1024.05
2018-09-25T10:06:42.849Z,1024.02
2018-09-25T10:07:42.734Z,1024.02
2018-09-25T10:08:42.727Z,1024.01
2018-09-25T10:09:42.712Z,1024.00
2018-09-25T10:10:42.705Z,1023.95
2018-09-25T10:11:42.692Z,1024.00
2018-09-25T10:12:42.678Z,1023.98
2018-09-25T10:13:42.669Z,1023.99
2018-09-25T10:14:42.657Z,1023.97
2018-09-25T10:15:42.648Z,1023.96
2018-09-25T10:16:42.636Z,1023.86
2018-09-25T10:17:42.625Z,1023.88
2018-09-25T10:18:42.650Z,1023.86
2018-09-25T10:19:42.602Z,1023.84
2018-09-25T10:20:42.590Z,1023.82
2018-09-25T10:21:42.581Z,1023.81
2018-09-25T10:22:42.569Z,1023.82
2018-09-25T10:23:42.560Z,1023.80
2018-09-25T10:24:42.548Z,1023.75
2018-09-25T10:25:42.535Z,1023.78
2018-09-25T10:26:42.524Z,1023.80
2018-09-25T10:27:42.516Z,1023.81
2018-09-25T10:28:42.504Z,1023.82
2018-09-25T10:29:42.497Z,1023.88
2018-09-25T10:30:42.484Z,1023.83
2018-09-25T10:31:42.472Z,1023.86
2018-09-25T10:32:42.460Z,1023.81
2018-09-25T10:33:42.496Z,1023.85
2018-09-25T10:34:42.437Z,1023.81
2018-09-25T10:35:42.426Z,1023.77
2018-09-25T10:36:42.418Z,1023.79
2018-09-25T10:37:42.406Z,1023.82
2018-09-25T10:38:42.394Z,1023.80
2018-09-25T10:39:42.383Z,1023.74
2018-09-25T10:40:42.371Z,1023.76
2018-09-25T10:41:42.364Z,1023.76
2018-09-25T10:42:42.353Z,1023.73
2018-09-25T10:43:42.341Z,1023.77
2018-09-25T10:44:42.328Z,1023.73
2018-09-25T10:45:42.315Z,1023.72
2018-09-25T10:46:42.308Z,1023.71
2018-09-25T10:47:42.298Z,1023.68
2018-09-25T10:48:42.283Z,1023.66
2018-09-25T10:49:42.297Z,1023.75
2018-09-25T10:50:42.263Z,1023.66
2018-09-25T10:51:42.250Z,1023.72
2018-09-25T10:52:42.240Z,1023.66
2018-09-25T10:53:42.228Z,1023.74
2018-09-25T10:54:42.217Z,1023.71
2018-09-25T10:55:42.215Z,1023.72
2018-09-25T10:56:42.195Z,1023.74
2018-09-25T10:57:42.184Z,1023.70
2018-09-25T10:58:42.175Z,1023.71
2018-09-25T10:59:42.163Z,1023.71
2018-09-25T11:00:42.151Z,1023.72
2018-09-25T11:01:42.139Z,1023.71
2018-09-25T11:02:42.136Z,1023.71
2018-09-25T11:03:42.118Z,1023.68
2018-09-25T11:04:42.109Z,1023.71
2018-09-25T11:05:42.099Z,1023.73
2018-09-25T11:06:42.088Z,1023.70
2018-09-25T11:07:42.075Z,1023.75
2018-09-25T11:08:42.068Z,1023.75
2018-09-25T11:09:42.052Z,1023.73
2018-09-25T11:10:42.043Z,1023.77
2018-09-25T11:11:42.031Z,1023.77
2018-09-25T11:12:42.021Z,1023.77
2018-09-25T11:13:42.010Z,1023.75
2018-09-25T11:14:42.000Z,1023.73
2018-09-25T11:15:41.987Z,1023.69
2018-09-25T11:16:41.979Z,1023.69
2018-09-25T11:17:41.992Z,1023.75
2018-09-25T11:18:41.958Z,1023.68
2018-09-25T11:19:41.951Z,1023.66
2018-09-25T11:20:41.933Z,1023.65
2018-09-25T11:21:41.923Z,1023.75
2018-09-25T11:22:41.913Z,1023.67
2018-09-25T11:23:41.901Z,1023.69
2018-09-25T11:24:41.891Z,1023.72
2018-09-25T11:25:41.877Z,1023.72
2018-09-25T11:26:41.870Z,1023.73
2018-09-25T11:27:41.857Z,1023.69
2018-09-25T11:28:41.845Z,1023.70
2018-09-25T11:29:41.835Z,1023.73
2018-09-25T11:30:41.823Z,1023.71
2018-09-25T11:31:41.816Z,1023.65
2018-09-25T11:32:41.801Z,1023.69
2018-09-25T11:33:41.787Z,1023.65
2018-09-25T11:34:41.782Z,1023.64
2018-09-25T11:35:41.769Z,1023.65
2018-09-25T11:36:41.763Z,1023.65
2018-09-25T11:37:41.745Z,1023.66
2018-09-25T11:38:41.734Z,1023.61
2018-09-25T11:39:41.723Z,1023.61
2018-09-25T11:40:41.713Z,1023.58
2018-09-25T11:41:41.700Z,1023.61
2018-09-25T11:42:41.689Z,1023.58
2018-09-25T11:43:41.678Z,1023.55
2018-09-25T11:44:41.668Z,1023.55
2018-09-25T11:45:41.656Z,1023.53
2018-09-25T11:46:41.765Z,1023.55
2018-09-25T11:47:41.634Z,1023.57
2018-09-25T11:48:41.626Z,1023.58
2018-09-25T11:49:41.642Z,1023.50
2018-09-25T11:50:41.602Z,1023.48
2018-09-25T11:51:41.592Z,1023.48
2018-09-25T11:52:41.599Z,1023.48
2018-09-25T11:53:41.573Z,1023.47
2018-09-25T11:54:41.564Z,1023.45
2018-09-25T11:55:41.551Z,1023.43
2018-09-25T11:56:41.534Z,1023.43
2018-09-25T11:57:41.526Z,1023.41
2018-09-25T11:58:41.516Z,1023.36
2018-09-25T11:59:41.507Z,1023.38
2018-09-25T12:00:41.492Z,1023.41
2018-09-25T12:01:41.481Z,1023.41
2018-09-25T12:02:41.478Z,1023.43
2018-09-25T12:03:41.461Z,1023.39
2018-09-25T12:04:41.451Z,1023.38
2018-09-25T12:05:41.441Z,1023.38